Centennial, WY

2:21 PM MDT on August 22, 2014 (GMT -0600)
Aspen Country | Change Station
CLOSE
Current Station
Personal Weather Station
Location: Centennial, WY
Elevation: 8050 ft
Nearby Weather Stations

Elev 8050 ft 41.29 °N, 106.15 °W | Updated 16 seconds ago

Overcast
Overcast
67.9 °F
Feels Like 67.9 °F
N
5.0
Wind Variable Wind from SE
Gusts 7.0 mph

Today
High -- | Low -- °F
--% Chance of Precip.
Yesterday
High -- | Low -- °F
Precip. -- in
6:20 AM 7:53 PM
Waning Crescent, 7% visible
Pressure 29.87 in
Visibility 10.0 miles
Clouds Overcast 8500 ft
Dew Point 46 °F
Humidity 46%
Rainfall 0.00 in
Snow Depth 0 in
UV 3 out of 12
Pollen 9.40 out of 12
Air Quality Not available.
Flu Activity Not available.
METAR KLAR 221953Z AUTO 20009KT 10SM OVC085 22/03 A3018 RMK AO2 SLP113 T02170033

More Conditions Fewer Conditions

Pressure 29.87 in
Visibility 10.0 miles
Clouds Overcast 8500 ft
Dew Point 46 °F
Humidity 46%
Rainfall 0.00 in
Snow Depth 0 in
UV 3 out of 12
Pollen 9.40 out of 12
Air Quality Not available.
Flu Activity Not available.
METAR KLAR 221953Z AUTO 20009KT 10SM OVC085 22/03 A3018 RMK AO2 SLP113 T02170033

More Conditions Fewer Conditions

10-Day Weather Forecast

Almanac

Astronomy

Aug. 22, 2014 Rise Set
Actual Time 6:20 AM MDT 7:53 PM MDT
Civil Twilight 5:51 AM MDT 8:22 PM MDT
Nautical Twilight 5:16 AM MDT 8:57 PM MDT
Astronomical Twilight 4:39 AM MDT 9:34 PM MDT
Moon 3:45 AM MDT 6:03 PM MDT
Length of Visible Light 14h 30m
Length of Day
13h 32m
Tomorrow will be 2m 33s shorter.
Waning Crescent, 7% of the Moon is Illuminated
Today
Waning Crescent
Aug 25
New
Sep 2
First Quarter
Sep 8
Full
Sep 15
Last Quarter

Today's Extremes

State Highs State Lows

Community

WunderPhotos

Upload Photos

1,746,241 photos uploaded!

Nearby

Snow Depth

Station Depth Elevation
Cinnabar Park 0 in 9690 ft
Crow Creek 0 in 8330 ft
Old Battle 0 in 9920 ft
Grave Springs 1 in 8550 ft
South Pass 0 in 9040 ft

Earthquake Activity

City Distance Mag. Time & Date
No recent earthquake activity has been reported nearby.
Minimum magnitude displayed is 2.5.

Coastal Water Temperatures

Place Temperature
No Stations Reporting

Nearby Weather Stations